Time;durP1;ratioP1;P1;durP2;ratioP2;P2;SDS_P1;SDS_P2;PMS_P1;PMS_P2;Temp;Humidity;BMP_temperature;BMP_pressure;BME280_temperature;BME280_humidity;BME280_pressure;Samples;Min_cycle;Max_cycle;Signal;HPM_P1;HPM_P2
2021/08/03 00:02:27;;;;;;;;;4.00;3.00;;;;;23.18;58.37;98352.69;4992860;27;102401;-91
2021/08/03 00:04:56;;;;;;;;;1.67;1.67;;;;;23.17;58.30;98348.28;4997076;27;102453;-91
2021/08/03 00:07:24;;;;;;;;;3.00;3.00;;;;;23.16;58.36;98344.69;5014122;27;103987;-92
2021/08/03 00:09:56;;;;;;;;;1.00;1.00;;;;;23.16;58.34;98343.88;4986282;27;108947;-92
2021/08/03 00:12:31;;;;;;;;;2.33;2.33;;;;;23.16;58.31;98344.69;4983442;27;102653;-91
2021/08/03 00:15:07;;;;;;;;;3.67;2.67;;;;;23.17;58.45;98351.03;4996683;27;103348;-92
2021/08/03 00:17:40;;;;;;;;;3.00;3.00;;;;;23.14;58.32;98350.47;5008544;27;102696;-92
2021/08/03 00:20:20;;;;;;;;;2.00;2.00;;;;;23.14;58.53;98347.72;4993867;27;104114;-92
2021/08/03 00:23:01;;;;;;;;;4.33;3.00;;;;;23.14;58.15;98353.25;4991252;27;103260;-92
2021/08/03 00:25:36;;;;;;;;;1.67;1.67;;;;;23.14;58.40;98344.97;4885047;27;102631;-92
2021/08/03 00:28:11;;;;;;;;;3.00;2.00;;;;;23.13;58.41;98348.88;4970991;27;104025;-92
2021/08/03 00:30:48;;;;;;;;;2.67;2.67;;;;;23.12;58.29;98344.44;4971474;27;103131;-92
2021/08/03 00:33:21;;;;;;;;;4.00;3.00;;;;;23.11;58.40;98342.78;5000388;27;102150;-92
2021/08/03 00:35:54;;;;;;;;;2.33;2.33;;;;;23.11;58.36;98341.97;4988929;27;102168;-92
2021/08/03 00:38:27;;;;;;;;;2.00;2.00;;;;;23.09;58.38;98345.03;4984760;27;102470;-90
2021/08/03 00:41:04;;;;;;;;;2.33;1.67;;;;;23.10;58.51;98346.66;5001719;27;103423;-92
2021/08/03 00:43:39;;;;;;;;;3.00;2.00;;;;;23.10;58.32;98354.09;4968568;27;102135;-91
2021/08/03 00:46:11;;;;;;;;;3.00;2.00;;;;;23.09;58.42;98347.78;4999297;27;110947;-92
2021/08/03 00:48:38;;;;;;;;;2.33;2.33;;;;;23.08;58.39;98342.56;5014405;27;104388;-92
2021/08/03 00:51:05;;;;;;;;;2.00;2.00;;;;;23.08;58.27;98353.59;4993993;27;104152;-92
2021/08/03 00:53:32;;;;;;;;;1.67;1.67;;;;;23.09;58.38;98353.31;5006674;27;102610;-92
2021/08/03 00:55:59;;;;;;;;;2.33;2.33;;;;;23.07;58.39;98355.53;4980217;27;102657;-92
2021/08/03 00:58:27;;;;;;;;;2.00;2.00;;;;;23.08;58.42;98353.59;4999630;27;104962;-92
2021/08/03 01:00:55;;;;;;;;;3.00;3.00;;;;;23.06;58.34;98358.56;4989986;27;108956;-92
2021/08/03 01:03:23;;;;;;;;;1.33;1.33;;;;;23.07;58.45;98363.78;4962379;27;103316;-92
2021/08/03 01:06:08;;;;;;;;;2.00;2.00;;;;;23.06;58.22;98356.63;4977962;27;102728;-92
2021/08/03 01:09:14;;;;;;;;;1.67;1.67;;;;;23.06;58.32;98359.38;4927361;27;105624;-92
2021/08/03 01:12:01;;;;;;;;;1.33;1.33;;;;;23.04;58.24;98353.34;4901740;27;108810;-92
2021/08/03 01:14:39;;;;;;;;;2.00;2.00;;;;;23.03;58.36;98345.34;4971806;27;103671;-92
2021/08/03 01:17:35;;;;;;;;;3.00;3.00;;;;;23.03;58.38;98350.88;4913806;27;102994;-92
2021/08/03 01:20:33;;;;;;;;;1.00;1.00;;;;;23.02;58.30;98355.56;4917657;27;102201;-92
2021/08/03 01:23:37;;;;;;;;;3.00;3.00;;;;;23.02;58.35;98354.72;4932195;27;107878;-92
2021/08/03 01:26:34;;;;;;;;;1.67;1.67;;;;;23.01;58.27;98358.63;4936912;27;102336;-92
2021/08/03 01:29:17;;;;;;;;;1.67;1.67;;;;;22.98;58.27;98354.47;4911175;27;104026;-91
2021/08/03 01:31:55;;;;;;;;;2.00;2.00;;;;;22.99;58.51;98358.91;4855083;27;102755;-92
2021/08/03 01:34:31;;;;;;;;;1.67;1.67;;;;;23.00;58.22;98351.44;4959363;27;103239;-92
2021/08/03 01:37:08;;;;;;;;;3.00;3.00;;;;;22.97;58.41;98355.59;5008902;27;103466;-92
2021/08/03 01:39:45;;;;;;;;;1.33;1.33;;;;;22.97;58.41;98352.84;4949435;27;104672;-92
2021/08/03 01:42:18;;;;;;;;;2.33;2.33;;;;;22.95;58.29;98349.56;4989778;27;103009;-92
2021/08/03 01:44:51;;;;;;;;;1.67;1.67;;;;;22.95;58.20;98349.56;4981821;27;103128;-92
2021/08/03 01:47:28;;;;;;;;;3.67;3.33;;;;;22.95;58.33;98346.78;4960147;27;104236;-92
2021/08/03 01:50:01;;;;;;;;;1.33;1.33;;;;;22.96;58.32;98350.38;4984849;27;103199;-92
2021/08/03 01:52:35;;;;;;;;;2.67;2.67;;;;;22.95;58.26;98357.81;4975654;27;102345;-92
2021/08/03 01:55:10;;;;;;;;;3.00;3.00;;;;;22.94;58.11;98352.59;5000597;27;107849;-92
2021/08/03 01:57:40;;;;;;;;;1.67;1.67;;;;;22.94;58.16;98347.06;4993899;27;102750;-91
2021/08/03 02:00:07;;;;;;;;;2.67;2.00;;;;;22.92;58.32;98350.09;5004346;27;102549;-91
2021/08/03 02:02:35;;;;;;;;;1.67;1.67;;;;;22.93;58.38;98362.78;4996915;27;102733;-92
2021/08/03 02:05:03;;;;;;;;;2.00;2.00;;;;;22.91;58.36;98348.50;4970978;27;108987;-92
2021/08/03 02:07:30;;;;;;;;;2.67;2.00;;;;;22.92;58.26;98357.59;4982079;27;103050;-92
2021/08/03 02:09:57;;;;;;;;;3.33;2.00;;;;;22.92;58.29;98360.34;4989499;27;102407;-92
2021/08/03 02:12:25;;;;;;;;;3.00;2.67;;;;;22.91;58.31;98351.25;5004695;27;102214;-92
2021/08/03 02:14:52;;;;;;;;;2.33;1.33;;;;;22.93;58.50;98359.22;4997111;27;105031;-92
2021/08/03 02:17:20;;;;;;;;;1.67;1.67;;;;;22.91;58.29;98358.69;4978286;27;103360;-91
2021/08/03 02:19:48;;;;;;;;;2.33;1.33;;;;;22.90;58.30;98362.56;4987886;27;102336;-92
2021/08/03 02:22:16;;;;;;;;;2.00;2.00;;;;;22.90;58.21;98368.88;5004137;27;103123;-92
2021/08/03 02:24:44;;;;;;;;;2.33;2.33;;;;;22.89;58.35;98366.41;4991135;27;104008;-92
2021/08/03 02:27:11;;;;;;;;;3.00;2.00;;;;;22.88;58.07;98362.81;5009653;27;105697;-92
2021/08/03 02:29:41;;;;;;;;;3.00;2.00;;;;;22.87;58.33;98365.88;4989882;27;104314;-92
2021/08/03 02:32:16;;;;;;;;;2.33;1.67;;;;;22.87;58.23;98361.19;4986680;27;102836;-91
2021/08/03 02:34:53;;;;;;;;;1.67;1.67;;;;;22.87;58.24;98363.97;4986622;27;104166;-92
2021/08/03 02:37:29;;;;;;;;;2.33;1.33;;;;;22.86;58.27;98362.31;4976425;27;102543;-92
2021/08/03 02:39:56;;;;;;;;;1.67;1.67;;;;;22.86;57.95;98365.06;4985237;27;103334;-92
2021/08/03 02:42:23;;;;;;;;;2.00;2.00;;;;;22.86;58.35;98361.47;4982355;27;102646;-92
2021/08/03 02:44:54;;;;;;;;;1.33;1.33;;;;;22.86;58.22;98373.34;4995647;27;104100;-91
2021/08/03 02:47:28;;;;;;;;;1.00;1.00;;;;;22.85;58.34;98374.44;4984247;27;103499;-91
2021/08/03 02:50:05;;;;;;;;;2.33;2.33;;;;;22.83;58.25;98376.63;4996790;27;102788;-92
2021/08/03 02:52:43;;;;;;;;;3.00;2.00;;;;;22.83;58.26;98367.56;4984775;27;102749;-92
2021/08/03 02:55:38;;;;;;;;;1.33;1.33;;;;;22.83;58.10;98367.56;4986782;27;109035;-85
2021/08/03 02:58:08;;;;;;;;;2.33;2.33;;;;;22.83;58.19;98379.41;4993640;27;102380;-86
2021/08/03 03:00:36;;;;;;;;;2.33;2.00;;;;;22.82;58.26;98372.25;4990632;27;104241;-86
2021/08/03 03:03:08;;;;;;;;;2.00;2.00;;;;;22.82;58.07;98377.78;4955016;27;102652;-86
2021/08/03 03:05:36;;;;;;;;;2.67;2.00;;;;;22.81;58.22;98375.28;5003904;27;108508;-86
2021/08/03 03:08:15;;;;;;;;;1.00;1.00;;;;;22.80;58.32;98384.66;4984805;27;105187;-86
2021/08/03 03:10:44;;;;;;;;;1.33;1.33;;;;;22.81;58.15;98389.06;4984473;27;102678;-86
2021/08/03 03:13:16;;;;;;;;;1.33;1.33;;;;;22.79;57.97;98389.34;5012507;27;102391;-86
2021/08/03 03:15:44;;;;;;;;;2.00;2.00;;;;;22.80;58.16;98395.69;4995106;27;104328;-86
2021/08/03 03:18:12;;;;;;;;;2.00;1.67;;;;;22.79;58.05;98391.28;4971202;27;103807;-86
2021/08/03 03:20:39;;;;;;;;;3.00;2.00;;;;;22.78;58.12;98395.16;4965664;27;103791;-86
2021/08/03 03:23:06;;;;;;;;;1.00;1.00;;;;;22.78;58.23;98397.94;4989317;27;102111;-86
2021/08/03 03:25:33;;;;;;;;;2.33;1.33;;;;;22.78;57.97;98398.75;4986947;27;109912;-86
2021/08/03 03:28:01;;;;;;;;;2.00;2.00;;;;;22.77;58.04;98405.38;5014144;27;102172;-86
2021/08/03 03:30:29;;;;;;;;;2.00;2.00;;;;;22.75;58.08;98412.25;5006669;27;102130;-86
2021/08/03 03:33:01;;;;;;;;;2.00;2.00;;;;;22.77;58.08;98407.31;4985258;27;102263;-86
2021/08/03 03:35:28;;;;;;;;;1.67;1.67;;;;;22.77;58.17;98407.31;4986485;27;105270;-86
2021/08/03 03:37:56;;;;;;;;;1.33;1.33;;;;;22.76;58.04;98417.50;5002661;27;102019;-86
2021/08/03 03:40:23;;;;;;;;;2.67;1.67;;;;;22.75;58.15;98412.25;4991985;27;104604;-86
2021/08/03 03:42:52;;;;;;;;;2.00;2.00;;;;;22.75;58.11;98410.34;4993072;27;102363;-86
2021/08/03 03:45:19;;;;;;;;;2.67;2.67;;;;;22.75;58.17;98417.78;4979639;27;105587;-86
2021/08/03 03:48:10;;;;;;;;;2.33;1.67;;;;;22.75;58.11;98418.59;5009647;27;102322;-86
2021/08/03 03:50:43;;;;;;;;;1.00;1.00;;;;;22.73;58.01;98407.06;4998448;27;102537;-86
2021/08/03 03:53:20;;;;;;;;;1.67;1.67;;;;;22.73;57.97;98418.09;4989614;27;102285;-86
2021/08/03 03:55:52;;;;;;;;;2.00;1.67;;;;;22.74;57.89;98424.41;4991455;27;104129;-86
2021/08/03 03:58:19;;;;;;;;;1.67;1.67;;;;;22.74;58.09;98427.97;4988206;27;103204;-86
2021/08/03 04:00:48;;;;;;;;;2.33;1.67;;;;;22.73;58.00;98431.88;4989849;27;104402;-86
2021/08/03 04:03:16;;;;;;;;;1.00;1.00;;;;;22.72;57.93;98426.63;5007299;27;102146;-86
2021/08/03 04:05:43;;;;;;;;;2.33;2.33;;;;;22.71;58.00;98439.56;4988370;27;104106;-86
2021/08/03 04:08:10;;;;;;;;;1.00;1.00;;;;;22.69;57.93;98428.00;4979798;27;102930;-86
2021/08/03 04:10:38;;;;;;;;;1.00;1.00;;;;;22.69;57.96;98428.81;5001528;27;102295;-86
2021/08/03 04:13:05;;;;;;;;;1.00;1.00;;;;;22.70;57.94;98437.91;5011195;27;102488;-86
2021/08/03 04:15:33;;;;;;;;;2.00;2.00;;;;;22.71;57.74;98436.00;4971409;27;104809;-86
2021/08/03 04:18:00;;;;;;;;;2.33;2.33;;;;;22.69;57.76;98433.50;5009409;27;102666;-86
2021/08/03 04:20:27;;;;;;;;;2.67;2.00;;;;;22.68;57.68;98437.38;5007767;27;102264;-86
2021/08/03 04:22:55;;;;;;;;;2.00;2.00;;;;;22.68;57.62;98438.19;4985042;27;102540;-86
2021/08/03 04:25:22;;;;;;;;;2.00;1.33;;;;;22.68;57.55;98429.94;5008986;27;104193;-86
2021/08/03 04:27:49;;;;;;;;;2.00;2.00;;;;;22.67;57.64;98435.72;5008275;27;102557;-86
2021/08/03 04:30:16;;;;;;;;;0.67;0.67;;;;;22.67;57.50;98433.78;4994711;27;103460;-86
2021/08/03 04:32:44;;;;;;;;;1.67;1.67;;;;;22.66;57.61;98434.06;5015494;27;103577;-86
2021/08/03 04:35:11;;;;;;;;;2.00;2.00;;;;;22.67;57.66;98436.53;4990380;27;104259;-86
2021/08/03 04:37:43;;;;;;;;;3.00;3.00;;;;;22.66;57.38;98439.56;5019186;27;103531;-86
2021/08/03 04:40:11;;;;;;;;;1.00;1.00;;;;;22.66;57.39;98439.56;5008652;27;103229;-86
2021/08/03 04:42:39;;;;;;;;;2.00;2.00;;;;;22.66;57.51;98439.56;5001992;27;110781;-86
2021/08/03 04:45:07;;;;;;;;;2.00;2.00;;;;;22.66;57.34;98440.41;4999867;27;104263;-86
2021/08/03 04:47:43;;;;;;;;;1.67;0.67;;;;;22.66;57.24;98440.41;5000418;27;103622;-86
2021/08/03 04:50:15;;;;;;;;;1.00;1.00;;;;;22.65;56.91;98427.72;4997363;27;102389;-86
2021/08/03 04:52:42;;;;;;;;;2.00;1.00;;;;;22.65;57.44;98433.22;4992093;27;102581;-86
2021/08/03 04:55:10;;;;;;;;;1.67;1.67;;;;;22.65;57.15;98433.22;5013947;27;104158;-85
2021/08/03 04:57:38;;;;;;;;;1.67;1.67;;;;;22.64;57.38;98436.28;4980431;27;102560;-86
2021/08/03 05:00:06;;;;;;;;;1.67;1.67;;;;;22.64;57.31;98439.88;4987513;27;102992;-86
2021/08/03 05:02:33;;;;;;;;;1.00;1.00;;;;;22.65;57.04;98433.22;5008776;27;102767;-86
2021/08/03 05:05:02;;;;;;;;;1.67;1.67;;;;;22.64;57.14;98442.63;4983590;27;104114;-86
2021/08/03 05:07:30;;;;;;;;;1.00;1.00;;;;;22.65;57.39;98437.91;5004793;27;103980;-86
2021/08/03 05:10:01;;;;;;;;;1.67;1.33;;;;;22.64;57.20;98426.09;4994366;27;102555;-87
2021/08/03 05:12:28;;;;;;;;;1.33;1.33;;;;;22.65;57.28;98429.66;4977521;27;102698;-86
2021/08/03 05:15:00;;;;;;;;;1.00;0.67;;;;;22.63;57.12;98423.59;5007897;27;105517;-86
2021/08/03 05:17:31;;;;;;;;;1.67;1.67;;;;;22.65;57.06;98427.72;5009192;27;102318;-86
2021/08/03 05:19:58;;;;;;;;;1.33;1.33;;;;;22.67;57.08;98430.19;5012200;27;102386;-86
2021/08/03 05:22:25;;;;;;;;;0.67;0.67;;;;;22.66;57.22;98440.41;5014159;27;102881;-86
2021/08/03 05:24:53;;;;;;;;;2.00;1.67;;;;;22.66;57.26;98445.09;5001337;27;104138;-86
2021/08/03 05:27:20;;;;;;;;;2.00;2.00;;;;;22.66;57.21;98445.09;5007163;27;104303;-86
2021/08/03 05:29:47;;;;;;;;;2.00;1.33;;;;;22.66;56.99;98439.56;4972461;27;102684;-86
2021/08/03 05:32:15;;;;;;;;;2.33;2.00;;;;;22.65;57.22;98433.22;5009121;27;102860;-86
2021/08/03 05:34:42;;;;;;;;;1.33;1.33;;;;;22.65;57.21;98437.91;4987105;27;104008;-86
2021/08/03 05:37:09;;;;;;;;;0.67;0.67;;;;;22.65;57.04;98429.66;5004128;27;102846;-86
2021/08/03 05:39:36;;;;;;;;;1.67;1.67;;;;;22.65;57.24;98437.91;5016187;27;102439;-86
2021/08/03 05:42:04;;;;;;;;;1.67;1.67;;;;;22.65;57.15;98446.19;5013173;27;102267;-86
2021/08/03 05:44:31;;;;;;;;;2.33;2.00;;;;;22.67;56.98;98446.75;5016735;27;104178;-86
2021/08/03 05:46:58;;;;;;;;;1.00;1.00;;;;;22.66;57.04;98450.59;4996958;27;102084;-86
2021/08/03 05:49:26;;;;;;;;;1.67;1.67;;;;;22.66;57.03;98443.16;4980703;27;105184;-86
2021/08/03 05:51:55;;;;;;;;;2.00;2.00;;;;;22.68;56.92;98448.41;5005957;27;102527;-86
2021/08/03 05:54:23;;;;;;;;;1.67;1.67;;;;;22.66;56.91;98440.41;5004362;27;102996;-90
2021/08/03 05:56:51;;;;;;;;;1.00;1.00;;;;;22.66;57.03;98442.31;5006106;27;102232;-90
2021/08/03 05:59:18;;;;;;;;;1.67;1.67;;;;;22.66;56.87;98440.41;5002085;27;102222;-91
2021/08/03 06:01:45;;;;;;;;;2.00;2.00;;;;;22.66;57.11;98434.88;5002496;27;103147;-90
2021/08/03 06:04:13;;;;;;;;;1.67;1.67;;;;;22.66;56.84;98445.09;4987132;27;104076;-90
2021/08/03 06:06:41;;;;;;;;;1.00;1.00;;;;;22.66;56.90;98447.84;4997976;27;102400;-91
2021/08/03 06:09:10;;;;;;;;;1.67;1.67;;;;;22.68;56.95;98442.88;4999972;27;103219;-91
2021/08/03 06:11:47;;;;;;;;;1.00;1.00;;;;;22.68;56.89;98442.88;4980369;27;102643;-91
2021/08/03 06:14:28;;;;;;;;;1.67;1.67;;;;;22.68;56.80;98449.22;5006700;27;108869;-90
2021/08/03 06:16:56;;;;;;;;;2.00;2.00;;;;;22.68;56.97;98451.97;5010520;27;102718;-91
2021/08/03 06:19:23;;;;;;;;;1.33;0.67;;;;;22.68;56.99;98451.16;4982464;27;102682;-91
2021/08/03 06:21:50;;;;;;;;;1.00;1.00;;;;;22.68;56.85;98451.97;4978233;27;102488;-90
2021/08/03 06:24:17;;;;;;;;;2.00;1.00;;;;;22.68;56.77;98448.41;4990177;27;104337;-91
2021/08/03 06:26:45;;;;;;;;;1.67;0.67;;;;;22.68;56.81;98454.72;4972180;27;102376;-90
2021/08/03 06:29:12;;;;;;;;;0.67;0.67;;;;;22.68;56.72;98449.22;5008485;27;102417;-90
2021/08/03 06:31:40;;;;;;;;;1.33;1.00;;;;;22.68;56.78;98453.91;4997943;27;102198;-91
2021/08/03 06:34:07;;;;;;;;;1.67;1.00;;;;;22.69;56.78;98450.03;4985145;27;108988;-91
2021/08/03 06:36:34;;;;;;;;;1.00;1.00;;;;;22.68;56.68;98454.72;4998266;27;102367;-91
2021/08/03 06:39:01;;;;;;;;;0.67;0.33;;;;;22.68;56.71;98451.16;5003511;27;102266;-91
2021/08/03 06:41:32;;;;;;;;;1.67;1.67;;;;;22.69;56.69;98455.56;5011292;27;103180;-90
2021/08/03 06:44:05;;;;;;;;;2.00;2.00;;;;;22.69;56.62;98452.81;4976692;27;104026;-90
2021/08/03 06:46:34;;;;;;;;;0.67;0.67;;;;;22.71;56.63;98455.28;4996869;27;102223;-90
2021/08/03 06:49:04;;;;;;;;;0.67;0.67;;;;;22.70;56.62;98454.47;5015415;27;102497;-91
2021/08/03 06:51:36;;;;;;;;;2.00;1.67;;;;;22.70;56.45;98448.94;4994362;27;103148;-90
2021/08/03 06:54:05;;;;;;;;;1.33;1.33;;;;;22.71;56.61;98458.88;4979708;27;104071;-90
2021/08/03 06:56:35;;;;;;;;;1.00;1.00;;;;;22.72;56.78;98466.03;5006558;27;102364;-91
2021/08/03 06:59:05;;;;;;;;;0.67;0.67;;;;;22.72;56.61;98459.69;5012664;27;102329;-91
2021/08/03 07:02:00;;;;;;;;;1.33;1.00;;;;;22.72;56.59;98466.03;4966414;27;103002;-91
2021/08/03 07:04:57;;;;;;;;;0.67;0.67;;;;;22.72;56.53;98460.53;4894501;27;108894;-90
2021/08/03 07:07:25;;;;;;;;;2.00;2.00;;;;;22.73;56.45;98453.91;4883357;28;102509;-90
2021/08/03 07:09:53;;;;;;;;;0.67;0.67;;;;;22.74;56.48;98469.31;4950670;28;102616;-90
2021/08/03 07:12:22;;;;;;;;;0.67;0.67;;;;;22.76;56.46;98464.38;4948954;28;102641;-90
2021/08/03 07:14:50;;;;;;;;;0.67;0.67;;;;;22.75;56.57;98465.47;4964289;27;104018;-90
2021/08/03 07:17:17;;;;;;;;;0.67;0.67;;;;;22.75;56.36;98462.72;4967280;27;102730;-90
2021/08/03 07:19:45;;;;;;;;;1.00;1.00;;;;;22.75;56.36;98459.94;4968673;27;102430;-90
2021/08/03 07:22:14;;;;;;;;;1.00;1.00;;;;;22.77;56.17;98468.78;4962430;27;102636;-90
2021/08/03 07:24:43;;;;;;;;;1.33;0.67;;;;;22.77;56.28;98460.50;4961555;28;111273;-90
2021/08/03 07:27:10;;;;;;;;;0.67;0.67;;;;;22.79;56.33;98461.03;4962829;28;102513;-90
2021/08/03 07:29:38;;;;;;;;;0.67;0.67;;;;;22.79;56.40;98454.69;4975838;27;102018;-90
2021/08/03 07:32:07;;;;;;;;;2.00;2.00;;;;;22.80;56.17;98456.34;4962106;27;102270;-91
2021/08/03 07:34:37;;;;;;;;;0.67;0.67;;;;;22.81;56.34;98458.84;4962396;28;104144;-90
2021/08/03 07:37:05;;;;;;;;;1.00;1.00;;;;;22.81;56.00;98458.84;4960760;27;102488;-90
2021/08/03 07:39:33;;;;;;;;;0.67;0.67;;;;;22.83;56.22;98466.84;4977164;27;102352;-91
2021/08/03 07:42:00;;;;;;;;;1.00;1.00;;;;;22.83;56.22;98462.13;4976804;27;102674;-90
2021/08/03 07:44:27;;;;;;;;;0.67;0.67;;;;;22.84;56.14;98469.28;4972109;28;104170;-90
2021/08/03 07:46:54;;;;;;;;;0.67;0.67;;;;;22.84;55.98;98462.94;4962615;27;102470;-90
2021/08/03 07:49:22;;;;;;;;;0.33;0.33;;;;;22.84;55.88;98463.75;4967500;27;102566;-90
2021/08/03 07:51:50;;;;;;;;;0.67;0.67;;;;;22.85;56.18;98465.44;4970666;28;102718;-90
2021/08/03 07:54:17;;;;;;;;;0.67;0.67;;;;;22.87;55.84;98460.47;4959475;27;104338;-90
2021/08/03 07:56:45;;;;;;;;;1.00;0.00;;;;;22.86;55.99;98456.06;4974576;27;102325;-90
2021/08/03 07:59:12;;;;;;;;;1.33;1.00;;;;;22.87;56.04;98452.19;4968378;27;102839;-91
2021/08/03 08:01:39;;;;;;;;;0.67;0.67;;;;;22.88;56.04;98453.81;4979658;27;102264;-91
2021/08/03 08:04:06;;;;;;;;;1.00;1.00;;;;;22.87;55.87;98457.72;5018874;27;104479;-91
2021/08/03 08:06:34;;;;;;;;;1.00;1.00;;;;;22.88;55.98;98453.81;4998173;27;102460;-91
2021/08/03 08:09:16;;;;;;;;;1.00;0.33;;;;;22.87;55.77;98452.19;4992032;27;102880;-91
2021/08/03 08:11:43;;;;;;;;;1.67;1.67;;;;;22.87;55.79;98456.88;5014404;27;102317;-91
2021/08/03 08:14:10;;;;;;;;;1.67;1.67;;;;;22.89;55.89;98461.00;5005051;27;104148;-91
2021/08/03 08:16:37;;;;;;;;;0.00;0.00;;;;;22.89;55.81;98452.72;5012470;27;102626;-91
2021/08/03 08:19:05;;;;;;;;;0.67;0.67;;;;;22.90;56.01;98461.81;5000803;27;102335;-91
2021/08/03 08:21:34;;;;;;;;;0.67;0.67;;;;;22.90;56.04;98461.81;5006819;27;103384;-91
2021/08/03 08:24:02;;;;;;;;;1.67;1.00;;;;;22.91;55.75;98461.53;5008634;27;104208;-91
2021/08/03 08:26:30;;;;;;;;;1.00;1.00;;;;;22.91;56.01;98463.47;5004095;27;102412;-91
2021/08/03 08:28:57;;;;;;;;;0.00;0.00;;;;;22.91;55.89;98453.28;5010918;27;102452;-91
2021/08/03 08:31:24;;;;;;;;;0.67;0.67;;;;;22.91;55.80;98453.28;5008826;27;102204;-90
2021/08/03 08:33:52;;;;;;;;;2.00;1.00;;;;;22.92;55.89;98452.13;5016728;27;104598;-91
2021/08/03 08:36:19;;;;;;;;;1.00;1.00;;;;;22.91;55.72;98447.75;5011144;27;102517;-91
2021/08/03 08:38:46;;;;;;;;;1.33;1.00;;;;;22.90;55.80;98443.34;5006457;27;102617;-91
2021/08/03 08:41:13;;;;;;;;;2.00;1.00;;;;;22.92;55.66;98446.63;5016887;27;102556;-91
2021/08/03 08:43:41;;;;;;;;;0.00;0.00;;;;;22.94;55.72;98446.34;5004867;27;104616;-91
2021/08/03 08:46:13;;;;;;;;;2.00;2.00;;;;;22.93;55.62;98442.75;5008965;27;103273;-91
2021/08/03 08:48:40;;;;;;;;;1.00;0.00;;;;;22.96;55.72;98438.63;4984526;27;102150;-91
2021/08/03 08:51:07;;;;;;;;;0.67;0.67;;;;;22.95;55.72;98440.56;4990620;27;102336;-91
2021/08/03 08:53:35;;;;;;;;;0.00;0.00;;;;;22.97;55.62;98438.31;4961533;27;104048;-91
2021/08/03 08:56:03;;;;;;;;;1.00;1.00;;;;;22.98;55.77;98441.91;4983436;27;102800;-91
2021/08/03 08:58:37;;;;;;;;;0.33;0.33;;;;;22.99;55.57;98443.56;5009648;27;102448;-91
2021/08/03 09:01:04;;;;;;;;;1.00;1.00;;;;;22.97;55.61;98441.06;5008697;27;103609;-91
2021/08/03 09:03:32;;;;;;;;;1.00;1.00;;;;;22.99;55.49;98438.88;4999971;27;104250;-91
2021/08/03 09:06:03;;;;;;;;;1.00;0.33;;;;;22.99;55.53;98438.88;5008416;27;103351;-91
2021/08/03 09:08:35;;;;;;;;;0.67;0.67;;;;;23.00;55.49;98436.94;4987339;27;102558;-91
2021/08/03 09:11:08;;;;;;;;;0.67;0.67;;;;;23.01;55.56;98442.16;5021341;27;102224;-91
2021/08/03 09:13:48;;;;;;;;;0.33;0.33;;;;;23.03;55.42;98444.63;5006838;27;104372;-91
2021/08/03 09:16:16;;;;;;;;;1.00;1.00;;;;;23.02;55.31;98442.97;5004246;27;102654;-91
2021/08/03 09:18:46;;;;;;;;;1.00;1.00;;;;;23.04;55.50;98438.84;5006417;27;102634;-91
2021/08/03 09:21:24;;;;;;;;;1.67;1.67;;;;;23.05;55.37;98443.25;4991714;27;102364;-91
2021/08/03 09:23:59;;;;;;;;;0.00;0.00;;;;;23.06;55.16;98442.13;4998217;27;108984;-91
2021/08/03 09:26:47;;;;;;;;;0.33;0.00;;;;;23.06;55.31;98444.88;5010999;27;102336;-91
2021/08/03 09:29:18;;;;;;;;;1.00;1.00;;;;;23.07;55.27;98438.25;5002197;27;102284;-91
2021/08/03 09:31:56;;;;;;;;;0.33;0.33;;;;;23.08;55.49;98448.19;5000945;27;102700;-91
2021/08/03 09:34:24;;;;;;;;;1.00;1.00;;;;;23.08;55.26;98448.19;4950751;27;108776;-90
2021/08/03 09:36:53;;;;;;;;;0.67;0.67;;;;;23.10;55.37;98445.13;5007499;27;102539;-90
2021/08/03 09:39:40;;;;;;;;;0.67;0.67;;;;;23.11;55.28;98444.03;4987716;27;102993;-91
2021/08/03 09:42:18;;;;;;;;;0.33;0.33;;;;;23.11;55.30;98439.34;4983809;27;102545;-91
2021/08/03 09:45:02;;;;;;;;;0.00;0.00;;;;;23.12;55.11;98440.16;5006344;27;108869;-91
2021/08/03 09:47:34;;;;;;;;;0.00;0.00;;;;;23.13;55.08;98439.06;4929686;27;102689;-91
2021/08/03 09:50:08;;;;;;;;;0.67;0.67;;;;;23.13;55.09;98433.53;5011430;27;102292;-91
2021/08/03 09:52:40;;;;;;;;;0.00;0.00;;;;;23.12;55.15;98434.66;5019397;27;102218;-91
2021/08/03 09:55:14;;;;;;;;;1.00;1.00;;;;;23.13;55.35;98434.38;4997268;27;104221;-91
2021/08/03 09:57:42;;;;;;;;;0.33;0.33;;;;;23.13;55.04;98423.34;5003871;27;102541;-91
2021/08/03 10:00:34;;;;;;;;;1.00;1.00;;;;;23.14;55.18;98426.94;4989280;27;102597;-91
2021/08/03 10:03:02;;;;;;;;;1.00;1.00;;;;;23.14;55.38;98421.41;4935640;27;102534;-91
2021/08/03 10:05:30;;;;;;;;;0.00;0.00;;;;;23.17;55.12;98431.03;5009286;27;104381;-91
2021/08/03 10:07:57;;;;;;;;;0.00;0.00;;;;;23.17;55.32;98426.34;5012572;27;102396;-91
2021/08/03 10:10:24;;;;;;;;;0.33;0.33;;;;;23.16;55.15;98424.69;5010734;27;102587;-91
2021/08/03 10:12:51;;;;;;;;;1.00;1.00;;;;;23.18;55.16;98435.44;5007979;27;102550;-91
2021/08/03 10:15:19;;;;;;;;;0.00;0.00;;;;;23.18;55.12;98424.41;5000784;27;104836;-90
2021/08/03 10:17:46;;;;;;;;;1.00;0.00;;;;;23.17;55.32;98426.34;4998904;27;102103;-92
2021/08/03 10:20:14;;;;;;;;;0.67;0.33;;;;;23.18;55.22;98425.25;5002091;27;102509;-91
2021/08/03 10:23:03;;;;;;;;;0.00;0.00;;;;;23.19;55.23;98421.34;4998701;27;102160;-91
2021/08/03 10:25:32;;;;;;;;;1.00;0.67;;;;;23.20;55.20;98416.66;4939419;27;108739;-91
2021/08/03 10:27:59;;;;;;;;;0.00;0.00;;;;;23.20;55.22;98420.25;4985432;27;105290;-91
2021/08/03 10:30:26;;;;;;;;;0.67;0.67;;;;;23.23;55.07;98427.13;4970723;27;102513;-91
2021/08/03 10:33:00;;;;;;;;;0.00;0.00;;;;;23.23;55.10;98421.63;5005879;27;104230;-91
2021/08/03 10:35:46;;;;;;;;;0.00;0.00;;;;;23.24;54.84;98417.72;4996081;27;104134;-91
2021/08/03 10:38:15;;;;;;;;;0.00;0.00;;;;;23.25;55.11;98419.38;5005397;27;102184;-91
2021/08/03 10:40:49;;;;;;;;;1.00;0.33;;;;;23.25;55.19;98408.34;5011714;27;102225;-91
2021/08/03 10:43:21;;;;;;;;;1.00;1.00;;;;;23.25;55.00;98408.34;4995958;27;102443;-91
2021/08/03 10:46:07;;;;;;;;;1.00;1.00;;;;;23.26;55.13;98405.31;5010980;27;108911;-91
2021/08/03 10:48:37;;;;;;;;;0.00;0.00;;;;;23.29;55.14;98409.41;4944786;27;102626;-91
2021/08/03 10:51:28;;;;;;;;;1.00;1.00;;;;;23.28;54.99;98397.53;5010419;27;103684;-91
2021/08/03 10:54:14;;;;;;;;;0.00;0.00;;;;;23.30;54.92;98397.28;4950804;27;102676;-91
2021/08/03 10:56:58;;;;;;;;;0.00;0.00;;;;;23.29;55.04;98401.97;5005438;27;104068;-86
2021/08/03 10:59:34;;;;;;;;;1.67;0.67;;;;;23.31;54.99;98398.94;4940555;27;102304;-86
2021/08/03 11:02:03;;;;;;;;;1.00;0.33;;;;;23.32;54.87;98392.31;5001567;27;102153;-86
2021/08/03 11:04:43;;;;;;;;;0.67;0.67;;;;;23.32;55.09;98387.59;4995157;27;105792;-86
2021/08/03 11:07:31;;;;;;;;;1.00;1.00;;;;;23.33;54.90;98383.72;5008630;27;104207;-86
2021/08/03 11:10:03;;;;;;;;;1.00;0.00;;;;;23.33;54.94;98378.19;4937955;27;102464;-86
2021/08/03 11:12:36;;;;;;;;;1.00;0.00;;;;;23.34;54.97;98370.75;5008786;27;103023;-86
2021/08/03 11:15:23;;;;;;;;;0.00;0.00;;;;;23.35;54.82;98381.50;5015382;27;102997;-86
2021/08/03 11:18:02;;;;;;;;;0.00;0.00;;;;;23.36;54.87;98365.78;4998598;27;109001;-85
2021/08/03 11:20:35;;;;;;;;;0.33;0.33;;;;;23.37;54.89;98378.47;4931523;27;102301;-86
2021/08/03 11:23:04;;;;;;;;;1.00;1.00;;;;;23.38;54.82;98371.81;4995061;27;102363;-86
2021/08/03 11:25:32;;;;;;;;;0.67;0.00;;;;;23.37;54.97;98381.22;4988730;27;103931;-86
2021/08/03 11:28:19;;;;;;;;;0.00;0.00;;;;;23.39;55.08;98371.53;4979514;27;104259;-86
2021/08/03 11:30:50;;;;;;;;;1.00;1.00;;;;;23.39;54.84;98370.72;5007781;27;102209;-86
2021/08/03 11:33:19;;;;;;;;;0.33;0.33;;;;;23.40;54.87;98372.34;4985887;27;109354;-86
2021/08/03 11:35:46;;;;;;;;;0.00;0.00;;;;;23.41;54.79;98360.22;4971800;27;102714;-86
2021/08/03 11:38:15;;;;;;;;;0.33;0.33;;;;;23.42;54.78;98365.41;4989301;27;104477;-86
2021/08/03 11:40:42;;;;;;;;;1.00;1.00;;;;;23.42;55.01;98359.91;4977956;27;102537;-86
2021/08/03 11:43:09;;;;;;;;;0.00;0.00;;;;;23.43;54.93;98357.97;5002444;27;102880;-86
2021/08/03 11:45:39;;;;;;;;;0.00;0.00;;;;;23.44;54.79;98365.19;5001004;27;102771;-86